Time;durP1;ratioP1;P1;durP2;ratioP2;P2;SDS_P1;SDS_P2;PMS_P1;PMS_P2;Temp;Humidity;BMP_temperature;BMP_pressure;BME280_temperature;BME280_humidity;BME280_pressure;Samples;Min_cycle;Max_cycle;Signal;HPM_P1;HPM_P2
2022/05/10 00:02:06;;;;;;;2.75;1.95;;;;;;;21.44;52.46;101191.03;5085567;28;20119;-44
2022/05/10 00:04:31;;;;;;;3.40;2.45;;;;;;;21.44;52.27;101196.34;5084884;28;20031;-44
2022/05/10 00:06:57;;;;;;;3.78;2.15;;;;;;;21.44;52.07;101187.59;5085996;28;20538;-45
2022/05/10 00:09:27;;;;;;;4.35;2.58;;;;;;;21.43;52.25;101191.25;5082427;28;20034;-46
2022/05/10 00:11:54;;;;;;;4.35;2.40;;;;;;;21.42;52.52;101179.00;5084386;28;20077;-46
2022/05/10 00:14:20;;;;;;;3.22;2.28;;;;;;;21.41;52.06;101182.69;5067073;28;20113;-44
2022/05/10 00:16:46;;;;;;;3.75;2.30;;;;;;;21.41;51.99;101178.19;5083430;28;20020;-47
2022/05/10 00:19:15;;;;;;;3.22;2.45;;;;;;;21.41;52.22;101172.06;5067025;28;20036;-45
2022/05/10 00:21:41;;;;;;;5.85;2.55;;;;;;;21.41;51.91;101175.53;5067199;28;20028;-45
2022/05/10 00:24:07;;;;;;;3.10;2.38;;;;;;;21.41;52.25;101170.25;5082724;28;20032;-47
2022/05/10 00:26:32;;;;;;;2.30;2.10;;;;;;;21.42;52.13;101163.09;5084694;28;20038;-46
2022/05/10 00:28:58;;;;;;;3.25;2.38;;;;;;;21.43;51.81;101172.69;5085465;28;20067;-45
2022/05/10 00:31:23;;;;;;;3.85;2.70;;;;;;;21.43;51.78;101170.03;5085306;28;20032;-48
2022/05/10 00:33:49;;;;;;;3.38;2.38;;;;;;;21.42;51.77;101166.56;5065936;28;20040;-46
2022/05/10 00:36:18;;;;;;;2.90;2.05;;;;;;;21.43;51.82;101159.44;5083103;28;20032;-46
2022/05/10 00:38:44;;;;;;;3.08;2.45;;;;;;;21.43;51.78;101165.56;5082856;28;20048;-47
2022/05/10 00:41:12;;;;;;;4.13;2.42;;;;;;;21.43;51.82;101160.25;5084459;28;20443;-45
2022/05/10 00:43:44;;;;;;;5.75;2.55;;;;;;;21.43;52.24;101170.84;5085262;28;20028;-45
2022/05/10 00:46:15;;;;;;;1.95;1.75;;;;;;;21.43;52.20;101162.09;5085488;28;20059;-47
2022/05/10 00:48:46;;;;;;;3.83;2.22;;;;;;;21.42;52.09;101155.97;5086452;28;20369;-45
2022/05/10 00:51:33;;;;;;;2.45;1.85;;;;;;;21.41;51.86;101156.97;5084477;28;20527;-47
2022/05/10 00:54:06;;;;;;;3.60;2.10;;;;;;;21.42;51.87;101148.00;5066175;28;20087;-47
2022/05/10 00:56:37;;;;;;;3.33;1.83;;;;;;;21.42;52.01;101155.97;5071428;28;20032;-50
2022/05/10 00:59:08;;;;;;;3.67;2.08;;;;;;;21.43;52.09;101151.47;5067993;28;20402;-46
2022/05/10 01:01:36;;;;;;;5.22;2.15;;;;;;;21.42;51.83;101148.00;5081915;28;20511;-48
2022/05/10 01:04:41;;;;;;;2.72;2.40;;;;;;;21.41;51.98;101145.56;5083745;28;20503;-44
2022/05/10 01:07:18;;;;;;;2.53;1.63;;;;;;;21.40;51.71;101147.41;5084123;28;20028;-46
2022/05/10 01:09:55;;;;;;;3.50;1.90;;;;;;;21.41;51.76;101145.56;5081588;28;20058;-47
2022/05/10 01:12:44;;;;;;;1.70;1.60;;;;;;;21.40;51.85;101150.03;5083049;28;20040;-46
2022/05/10 01:15:18;;;;;;;3.50;2.20;;;;;;;21.40;51.92;101155.34;5085214;28;20066;-46
2022/05/10 01:17:46;;;;;;;3.75;1.98;;;;;;;21.40;51.63;101144.75;5079721;28;20028;-50
2022/05/10 01:20:16;;;;;;;2.85;2.05;;;;;;;21.40;51.95;101142.09;5083101;28;20028;-46
2022/05/10 01:23:17;;;;;;;4.40;1.88;;;;;;;21.38;51.82;101136.19;5087875;28;20040;-47
2022/05/10 01:25:51;;;;;;;2.80;2.22;;;;;;;21.38;51.83;101144.13;5086387;28;20097;-45
2022/05/10 01:28:22;;;;;;;2.60;2.07;;;;;;;21.37;51.71;101142.50;5087595;28;20040;-46
2022/05/10 01:30:48;;;;;;;3.22;2.40;;;;;;;21.38;51.77;101140.66;5089656;28;20558;-47
2022/05/10 01:33:29;;;;;;;3.83;2.03;;;;;;;21.38;51.93;101135.34;5087439;28;20038;-45
2022/05/10 01:36:13;;;;;;;3.70;2.00;;;;;;;21.36;51.96;101132.09;5079116;28;20375;-46
2022/05/10 01:39:04;;;;;;;3.92;1.90;;;;;;;21.34;51.73;101126.97;5085769;28;20039;-47
2022/05/10 01:41:56;;;;;;;4.22;2.15;;;;;;;21.33;51.66;101133.31;5086700;28;20046;-48
2022/05/10 01:44:22;;;;;;;2.92;2.25;;;;;;;21.35;51.50;101131.28;5088096;28;20180;-45
2022/05/10 01:46:51;;;;;;;2.35;1.40;;;;;;;21.35;52.03;101130.44;5083644;28;20434;-46
2022/05/10 01:49:29;;;;;;;6.00;1.92;;;;;;;21.33;51.50;101130.66;5087313;28;20016;-46
2022/05/10 01:52:01;;;;;;;2.38;1.80;;;;;;;21.33;51.50;101128.00;5088959;28;20070;-48
2022/05/10 01:54:39;;;;;;;2.50;1.63;;;;;;;21.32;51.63;101134.31;5089171;28;20494;-45
2022/05/10 01:57:09;;;;;;;3.50;2.17;;;;;;;21.35;51.60;101130.44;5080567;28;20028;-45
2022/05/10 01:59:34;;;;;;;2.33;1.77;;;;;;;21.34;51.69;101121.69;5087961;28;20113;-45
2022/05/10 02:02:03;;;;;;;2.97;2.05;;;;;;;21.35;51.64;101120.66;5088961;28;20028;-45
2022/05/10 02:04:35;;;;;;;3.15;2.03;;;;;;;21.34;51.85;101129.63;5085883;28;20122;-44
2022/05/10 02:07:08;;;;;;;5.03;1.60;;;;;;;21.35;51.73;101131.28;5087689;28;20044;-47
2022/05/10 02:09:39;;;;;;;2.25;1.95;;;;;;;21.36;51.99;101126.78;5085956;28;20023;-45
2022/05/10 02:12:30;;;;;;;2.72;2.22;;;;;;;21.33;51.69;101128.00;5117395;22;20499;-45
2022/05/10 02:15:02;;;;;;;2.25;1.58;;;;;;;21.34;51.57;101120.88;5067861;28;20028;-47
2022/05/10 02:17:46;;;;;;;3.75;1.42;;;;;;;21.33;51.76;101117.41;5067790;28;20075;-45
2022/05/10 02:20:42;;;;;;;1.52;1.42;;;;;;;21.32;51.83;101110.47;5067992;28;20024;-46
2022/05/10 02:23:23;;;;;;;5.03;1.70;;;;;;;21.32;51.92;101115.75;5068347;28;20060;-46
2022/05/10 02:25:56;;;;;;;3.13;2.53;;;;;;;21.35;51.61;101117.19;5067924;28;20033;-44
2022/05/10 02:28:44;;;;;;;3.30;2.13;;;;;;;21.33;51.67;101111.28;5067840;28;20086;-45
2022/05/10 02:33:06;;;;;;;3.10;2.03;;;;;;;21.32;51.76;101110.47;5067855;28;20147;-45
2022/05/10 02:34:25;;;;;;;2.70;1.83;;;;;;;21.34;51.36;101107.63;5067389;28;20079;-44
2022/05/10 02:36:50;;;;;;;2.60;2.10;;;;;;;21.36;51.67;101109.06;5067430;28;20114;-45
2022/05/10 02:39:16;;;;;;;2.05;1.83;;;;;;;21.37;51.35;101102.72;5067749;28;20089;-46
2022/05/10 02:41:41;;;;;;;3.47;2.15;;;;;;;21.37;51.24;101094.78;5067610;28;20039;-45
2022/05/10 02:44:07;;;;;;;2.58;2.13;;;;;;;21.38;51.66;101107.03;5049151;28;20051;-44
2022/05/10 02:46:34;;;;;;;2.60;2.15;;;;;;;21.37;51.58;101102.72;5067605;28;20020;-46
2022/05/10 02:49:00;;;;;;;2.65;1.95;;;;;;;21.37;51.30;101102.72;5067617;28;20048;-48
2022/05/10 02:51:26;;;;;;;5.03;2.40;;;;;;;21.38;51.43;101108.84;5067645;28;20021;-45
2022/05/10 02:53:51;;;;;;;2.90;2.00;;;;;;;21.38;51.66;101108.84;5067446;28;20134;-45
2022/05/10 02:56:20;;;;;;;2.97;1.80;;;;;;;21.37;51.59;101107.22;5067636;28;20408;-44
2022/05/10 02:59:04;;;;;;;3.05;1.77;;;;;;;21.33;51.59;101111.28;5067371;28;20055;-45
2022/05/10 03:01:53;;;;;;;2.63;1.98;;;;;;;21.33;51.28;101109.44;5066985;28;20054;-46
2022/05/10 03:04:19;;;;;;;2.58;2.22;;;;;;;21.33;51.24;101113.94;5067350;28;20032;-45
2022/05/10 03:06:46;;;;;;;2.45;1.95;;;;;;;21.34;51.38;101113.72;5066884;28;20070;-44
2022/05/10 03:09:12;;;;;;;3.83;2.28;;;;;;;21.34;51.53;101111.09;5066797;28;20033;-47
2022/05/10 03:11:38;;;;;;;3.30;2.03;;;;;;;21.35;51.53;101120.66;5067036;28;20039;-46
2022/05/10 03:14:06;;;;;;;5.00;2.17;;;;;;;21.35;51.81;101112.72;5066921;28;20032;-46
2022/05/10 03:16:32;;;;;;;3.38;1.45;;;;;;;21.34;51.28;101111.09;5066694;28;20028;-45
2022/05/10 03:18:58;;;;;;;2.85;1.77;;;;;;;21.36;51.19;101109.06;5067049;28;20074;-45
2022/05/10 03:21:24;;;;;;;1.90;1.65;;;;;;;21.36;51.57;101102.94;5066731;28;20610;-47
2022/05/10 03:23:51;;;;;;;2.67;1.67;;;;;;;21.35;51.23;101104.75;5066549;28;20503;-46
2022/05/10 03:26:24;;;;;;;3.47;2.20;;;;;;;21.35;51.22;101101.28;5067180;28;20028;-45
2022/05/10 03:28:50;;;;;;;2.97;1.80;;;;;;;21.34;51.54;101099.66;5066754;28;20039;-46
2022/05/10 03:31:18;;;;;;;2.30;1.65;;;;;;;21.33;51.28;101096.19;5066683;28;20029;-45
2022/05/10 03:33:44;;;;;;;2.08;1.85;;;;;;;21.32;51.51;101105.16;5066513;28;20483;-45
2022/05/10 03:36:10;;;;;;;2.60;1.60;;;;;;;21.32;51.75;101107.81;5066573;28;20122;-46
2022/05/10 03:38:36;;;;;;;4.22;2.08;;;;;;;21.32;51.36;101105.16;5066537;28;20112;-46
2022/05/10 03:41:03;;;;;;;3.42;1.65;;;;;;;21.31;51.68;101103.53;5066510;28;20075;-45
2022/05/10 03:43:28;;;;;;;2.90;1.92;;;;;;;21.30;51.57;101103.72;5066346;28;20040;-44
2022/05/10 03:45:54;;;;;;;3.60;1.83;;;;;;;21.30;51.66;101106.38;5066055;28;20020;-45
2022/05/10 03:48:20;;;;;;;2.28;1.45;;;;;;;21.30;51.37;101101.88;5066241;28;20115;-45
2022/05/10 03:50:46;;;;;;;2.33;1.88;;;;;;;21.29;51.61;101100.25;5066582;28;20032;-46
2022/05/10 03:53:12;;;;;;;3.78;2.00;;;;;;;21.29;51.59;101105.56;5066530;28;20028;-46
2022/05/10 03:55:37;;;;;;;1.60;1.30;;;;;;;21.29;51.56;101102.09;5066408;28;20033;-46
2022/05/10 03:58:04;;;;;;;2.75;1.80;;;;;;;21.29;51.51;101110.84;5066138;28;20589;-49
2022/05/10 04:00:30;;;;;;;2.85;2.47;;;;;;;21.29;51.69;101107.38;5066166;28;20127;-47
2022/05/10 04:02:56;;;;;;;3.45;1.90;;;;;;;21.29;51.80;101102.09;5066126;28;20120;-48
2022/05/10 04:05:24;;;;;;;2.40;1.63;;;;;;;21.28;51.67;101106.56;5066593;28;20067;-50
2022/05/10 04:07:50;;;;;;;3.17;2.42;;;;;;;21.28;51.37;101108.41;5066003;28;20310;-49
2022/05/10 04:10:17;;;;;;;1.80;1.67;;;;;;;21.27;51.73;101112.88;5066095;28;20175;-48
2022/05/10 04:12:43;;;;;;;1.67;1.55;;;;;;;21.27;51.36;101107.59;5065857;28;20491;-47
2022/05/10 04:15:12;;;;;;;3.67;1.80;;;;;;;21.28;51.65;101103.91;5066025;28;20198;-49
2022/05/10 04:17:38;;;;;;;3.13;1.40;;;;;;;21.29;51.48;101105.56;5066404;28;20438;-48
2022/05/10 04:20:06;;;;;;;3.17;1.75;;;;;;;21.29;51.29;101100.25;5066517;28;20025;-47
2022/05/10 04:22:32;;;;;;;2.22;1.55;;;;;;;21.30;51.24;101101.88;5047611;28;20044;-48
2022/05/10 04:24:58;;;;;;;2.88;1.63;;;;;;;21.31;51.61;101108.00;5066351;28;20059;-48
2022/05/10 04:27:24;;;;;;;1.73;1.63;;;;;;;21.32;51.32;101107.81;5065944;28;20344;-47
2022/05/10 04:29:49;;;;;;;4.03;2.10;;;;;;;21.34;51.51;101108.44;5065836;28;20099;-49
2022/05/10 04:32:15;;;;;;;2.88;1.77;;;;;;;21.34;51.22;101105.78;5065941;28;20032;-49
2022/05/10 04:34:40;;;;;;;7.70;1.98;;;;;;;21.36;51.50;101106.41;5047693;28;20039;-47
2022/05/10 04:37:06;;;;;;;3.05;1.10;;;;;;;21.36;51.51;101109.06;5065999;28;20036;-45
2022/05/10 04:42:15;;;;;;;2.55;1.70;;;;;;;21.36;51.41;101111.69;5066169;28;20056;-44
2022/05/10 04:44:41;;;;;;;2.58;1.67;;;;;;;21.37;51.32;101115.97;5065743;28;20463;-44
2022/05/10 04:47:06;;;;;;;3.28;1.58;;;;;;;21.37;51.18;101112.53;5066157;28;20104;-45
2022/05/10 04:49:31;;;;;;;2.38;1.52;;;;;;;21.37;51.51;101118.63;5066163;28;20645;-44
2022/05/10 04:51:57;;;;;;;3.38;1.77;;;;;;;21.37;50.98;101109.88;5065753;28;20078;-44
2022/05/10 04:54:22;;;;;;;1.60;1.42;;;;;;;21.36;50.88;101124.94;5065587;28;20037;-49
2022/05/10 04:56:48;;;;;;;4.15;1.75;;;;;;;21.36;50.99;101124.13;5067639;28;20028;-43
2022/05/10 04:59:13;;;;;;;4.22;1.23;;;;;;;21.36;51.27;101126.78;5070168;28;20475;-48
2022/05/10 05:01:39;;;;;;;3.72;1.55;;;;;;;21.36;51.11;101126.78;5069668;28;20537;-47
2022/05/10 05:04:04;;;;;;;3.15;2.10;;;;;;;21.36;50.84;101132.09;5069757;28;20036;-46
2022/05/10 05:06:30;;;;;;;2.40;2.20;;;;;;;21.35;51.22;101133.91;5069605;28;20044;-47
2022/05/10 05:08:56;;;;;;;3.85;1.98;;;;;;;21.35;51.03;101139.22;5069689;28;20103;-47
2022/05/10 05:11:23;;;;;;;3.72;1.98;;;;;;;21.35;51.34;101135.75;5069471;28;20139;-46
2022/05/10 05:13:49;;;;;;;3.33;1.83;;;;;;;21.35;50.90;101141.88;5069119;28;20064;-44
2022/05/10 05:16:14;;;;;;;2.53;1.38;;;;;;;21.34;51.29;101134.13;5069318;28;20024;-45
2022/05/10 05:18:40;;;;;;;2.70;1.80;;;;;;;21.34;50.90;101140.22;5069098;28;20070;-45
2022/05/10 05:21:06;;;;;;;3.58;1.70;;;;;;;21.34;50.92;101139.41;5069520;28;20052;-44
2022/05/10 05:23:31;;;;;;;2.80;1.83;;;;;;;21.34;50.89;101145.53;5069499;28;20514;-47
2022/05/10 05:25:57;;;;;;;3.58;1.77;;;;;;;21.34;50.89;101145.53;5069291;28;20123;-45
2022/05/10 05:28:22;;;;;;;3.90;1.83;;;;;;;21.35;50.76;101147.16;5069113;28;20031;-45
2022/05/10 05:30:48;;;;;;;2.63;1.73;;;;;;;21.36;51.14;101146.16;5069220;28;20588;-44
2022/05/10 05:33:14;;;;;;;3.55;1.73;;;;;;;21.36;51.26;101148.00;5069515;28;20618;-49
2022/05/10 05:35:40;;;;;;;2.88;1.83;;;;;;;21.35;51.11;101144.53;5069059;28;20051;-46
2022/05/10 05:38:06;;;;;;;3.35;1.65;;;;;;;21.36;51.28;101148.00;5068998;28;20099;-44
2022/05/10 05:40:34;;;;;;;4.32;2.25;;;;;;;21.36;50.92;101146.16;5069133;28;20482;-44
2022/05/10 05:43:00;;;;;;;2.55;1.70;;;;;;;21.36;51.29;101148.81;5069063;28;20036;-45
2022/05/10 05:45:26;;;;;;;3.53;2.13;;;;;;;21.36;51.06;101148.81;5068784;28;20020;-47
2022/05/10 05:47:52;;;;;;;3.47;1.83;;;;;;;21.35;51.59;101155.13;5064028;28;20024;-60
2022/05/10 05:50:20;;;;;;;1.50;1.38;;;;;;;21.36;51.57;101159.41;5067940;28;20033;-59
2022/05/10 05:52:46;;;;;;;3.15;1.60;;;;;;;21.36;51.46;101148.81;5066240;28;20109;-58
2022/05/10 05:55:13;;;;;;;2.80;1.80;;;;;;;21.36;51.66;101154.09;5067809;28;20556;-60
2022/05/10 05:57:38;;;;;;;7.05;1.58;;;;;;;21.36;51.46;101153.28;5068741;28;20032;-60
2022/05/10 06:00:07;;;;;;;3.45;2.15;;;;;;;21.35;51.36;101147.16;5065487;28;20034;-60
2022/05/10 06:02:33;;;;;;;3.17;2.28;;;;;;;21.35;51.60;101156.97;5066907;28;20039;-59
2022/05/10 06:04:58;;;;;;;3.08;1.48;;;;;;;21.34;51.76;101155.31;5067320;28;20044;-59
2022/05/10 06:07:24;;;;;;;3.00;2.22;;;;;;;21.33;51.74;101159.81;5067930;28;20082;-60
2022/05/10 06:09:49;;;;;;;2.55;1.85;;;;;;;21.33;51.66;101154.50;5067176;28;20021;-59
2022/05/10 06:12:19;;;;;;;2.40;1.70;;;;;;;21.32;51.61;101155.53;5065571;28;20041;-60
2022/05/10 06:14:45;;;;;;;6.38;2.45;;;;;;;21.33;51.51;101161.63;5068486;28;20035;-58
2022/05/10 06:17:11;;;;;;;5.97;2.38;;;;;;;21.33;51.59;101159.81;5065612;28;20525;-59
2022/05/10 06:19:39;;;;;;;5.97;1.90;;;;;;;21.33;51.70;101165.09;5067898;28;20040;-61
2022/05/10 06:22:07;;;;;;;3.85;1.70;;;;;;;21.33;51.36;101170.41;5066293;28;20060;-59
2022/05/10 06:24:33;;;;;;;3.50;1.73;;;;;;;21.33;51.90;101165.09;5066650;28;20497;-59
2022/05/10 06:26:58;;;;;;;2.28;1.42;;;;;;;21.34;51.54;101164.09;5064051;28;20128;-53
2022/05/10 06:29:24;;;;;;;6.22;2.35;;;;;;;21.37;52.50;101161.03;5046928;28;20108;-52
2022/05/10 06:31:50;;;;;;;7.95;3.10;;;;;;;21.46;53.65;101170.47;5066709;28;20462;-58
2022/05/10 06:34:16;;;;;;;3.85;3.22;;;;;;;21.56;54.53;101166.63;5066684;28;20040;-60
2022/05/10 06:36:42;;;;;;;7.35;4.43;;;;;;;21.61;54.46;101170.31;5064014;28;20047;-62
2022/05/10 06:39:08;;;;;;;4.80;3.70;;;;;;;21.66;54.51;101169.72;5064853;28;20035;-59
2022/05/10 06:41:34;;;;;;;6.38;2.72;;;;;;;21.67;54.13;101171.34;5064974;28;20040;-61
2022/05/10 06:44:01;;;;;;;4.75;2.67;;;;;;;21.65;53.72;101173.38;5035216;28;20033;-52
2022/05/10 06:46:29;;;;;;;5.78;2.55;;;;;;;21.60;53.58;101167.84;5066456;28;20116;-57
2022/05/10 06:48:55;;;;;;;3.78;2.50;;;;;;;21.60;53.62;101170.50;5044655;28;20440;-58
2022/05/10 06:51:23;;;;;;;3.28;2.00;;;;;;;21.59;53.76;101168.88;5050241;28;20024;-54
2022/05/10 06:53:49;;;;;;;4.95;1.77;;;;;;;21.56;53.97;101177.22;5065975;28;20425;-55
2022/05/10 06:56:15;;;;;;;6.07;2.25;;;;;;;21.52;54.04;101172.31;5066454;28;20448;-60
2022/05/10 06:58:41;;;;;;;5.40;1.52;;;;;;;21.52;53.69;101174.97;5061077;28;20037;-57
2022/05/10 07:01:12;;;;;;;5.78;2.08;;;;;;;21.52;54.35;101174.97;5062637;28;20049;-60
2022/05/10 07:03:39;;;;;;;7.07;2.40;;;;;;;21.52;54.59;101167.03;5067472;28;20396;-54
2022/05/10 07:06:08;;;;;;;7.65;3.00;;;;;;;21.52;54.40;101169.66;5066498;28;20424;-56
2022/05/10 07:08:34;;;;;;;3.38;2.35;;;;;;;21.50;54.42;101171.69;5047597;28;20028;-58
2022/05/10 07:10:59;;;;;;;7.38;3.17;;;;;;;21.49;54.37;101170.06;5065049;28;20063;-59
2022/05/10 07:13:27;;;;;;;6.78;2.65;;;;;;;21.47;53.85;101161.50;5066187;28;20041;-61
2022/05/10 07:15:52;;;;;;;4.65;2.63;;;;;;;21.46;53.50;101167.81;5067828;28;20074;-57
2022/05/10 07:18:19;;;;;;;7.00;2.83;;;;;;;21.45;53.28;101163.53;5067593;28;20120;-58
2022/05/10 07:20:46;;;;;;;5.47;3.00;;;;;;;21.44;52.93;101164.53;5063679;28;20101;-60
2022/05/10 07:23:12;;;;;;;10.00;3.25;;;;;;;21.45;52.91;101160.06;5065922;28;20048;-59
2022/05/10 07:25:38;;;;;;;9.18;3.38;;;;;;;21.45;53.21;101162.72;5064272;28;20039;-60
2022/05/10 07:28:07;;;;;;;5.50;2.80;;;;;;;21.43;53.23;101165.56;5065502;28;20028;-55
2022/05/10 07:30:35;;;;;;;10.48;3.13;;;;;;;21.41;52.93;101167.59;5063180;28;20024;-60
2022/05/10 07:33:01;;;;;;;12.30;3.83;;;;;;;21.41;52.57;101161.47;5066111;28;20097;-58
2022/05/10 07:38:14;;;;;;;8.52;3.60;;;;;;;21.39;52.88;101166.97;5066771;28;20133;-58
2022/05/10 07:40:41;;;;;;;4.95;2.60;;;;;;;21.41;52.85;101167.59;5048753;28;20103;-56
2022/05/10 07:43:07;;;;;;;6.10;3.22;;;;;;;21.42;52.86;101169.22;5066600;28;20119;-57
2022/05/10 07:45:33;;;;;;;6.85;3.25;;;;;;;21.42;52.78;101168.41;5048775;28;20468;-50
2022/05/10 07:47:59;;;;;;;7.85;3.53;;;;;;;21.42;52.64;101166.56;5066735;28;20335;-57
2022/05/10 07:50:25;;;;;;;6.47;3.20;;;;;;;21.40;52.23;101165.94;5066661;28;20032;-54
2022/05/10 07:52:50;;;;;;;4.78;3.22;;;;;;;21.43;52.84;101164.75;5066749;28;20123;-59
2022/05/10 07:55:17;;;;;;;10.30;4.00;;;;;;;21.42;52.36;101163.91;5067081;28;20025;-61
2022/05/10 07:57:43;;;;;;;8.63;4.07;;;;;;;21.41;51.77;101166.78;5067324;28;20426;-58
2022/05/10 08:00:12;;;;;;;8.30;3.95;;;;;;;21.41;51.85;101167.59;5064519;28;20032;-59
2022/05/10 08:02:42;;;;;;;9.07;3.25;;;;;;;21.41;52.00;101156.16;5036445;28;20441;-57
2022/05/10 08:05:09;;;;;;;5.15;2.83;;;;;;;21.41;51.87;101161.47;5012785;28;20032;-60
2022/05/10 08:07:35;;;;;;;5.93;3.92;;;;;;;21.42;52.36;101157.81;5066627;28;20032;-60
2022/05/10 08:10:00;;;;;;;9.32;3.30;;;;;;;21.42;52.17;101158.63;5066596;28;20123;-59
2022/05/10 08:12:26;;;;;;;7.00;3.35;;;;;;;21.43;52.27;101160.25;5066375;28;20056;-59
2022/05/10 08:14:51;;;;;;;7.60;3.38;;;;;;;21.43;52.15;101154.94;5066693;28;20054;-58
2022/05/10 08:17:17;;;;;;;7.68;3.10;;;;;;;21.44;52.29;101159.25;5066406;28;20527;-58
2022/05/10 08:19:45;;;;;;;5.28;3.50;;;;;;;21.44;52.36;101161.88;5066350;28;20089;-57
2022/05/10 08:22:11;;;;;;;5.28;3.38;;;;;;;21.45;52.60;101158.22;5066027;28;20024;-58
2022/05/10 08:24:36;;;;;;;3.85;3.13;;;;;;;21.45;52.57;101152.91;5066424;28;20471;-59
2022/05/10 08:27:02;;;;;;;6.50;3.55;;;;;;;21.45;52.22;101147.63;5066573;28;20039;-60
2022/05/10 08:29:27;;;;;;;6.03;3.60;;;;;;;21.47;52.38;101142.94;5066124;28;20545;-60
2022/05/10 08:31:53;;;;;;;6.35;4.07;;;;;;;21.47;52.49;101145.59;5069817;28;20332;-60
2022/05/10 08:34:19;;;;;;;4.68;3.22;;;;;;;21.47;52.50;101142.94;5070820;28;20147;-60
2022/05/10 08:36:46;;;;;;;4.35;2.90;;;;;;;21.47;52.20;101145.59;5070413;28;20115;-59
2022/05/10 08:39:13;;;;;;;3.25;2.42;;;;;;;21.46;52.22;101149.25;5070257;28;20066;-59
2022/05/10 08:41:45;;;;;;;7.28;3.50;;;;;;;21.47;52.17;101142.13;5070476;28;20094;-59
2022/05/10 08:44:22;;;;;;;4.75;2.85;;;;;;;21.45;52.28;101130.91;5070132;28;20432;-57
2022/05/10 08:46:52;;;;;;;5.55;3.00;;;;;;;21.45;52.36;101134.38;5070124;28;20033;-57
2022/05/10 08:49:47;;;;;;;3.72;2.83;;;;;;;21.43;52.23;101133.75;5070302;28;20545;-59
2022/05/10 08:52:15;;;;;;;4.75;2.80;;;;;;;21.44;52.24;101124.78;5070702;28;20024;-61
2022/05/10 08:54:42;;;;;;;3.67;3.03;;;;;;;21.45;52.19;101126.41;5069898;28;20029;-60
2022/05/10 08:57:37;;;;;;;4.22;2.83;;;;;;;21.45;51.97;101122.94;5070023;28;20104;-58
2022/05/10 09:00:17;;;;;;;6.00;2.90;;;;;;;21.43;52.22;101122.31;5070132;28;20360;-59
2022/05/10 09:02:47;;;;;;;4.60;2.58;;;;;;;21.46;51.80;101128.03;5070047;28;20059;-59
2022/05/10 09:05:28;;;;;;;3.70;2.88;;;;;;;21.45;51.88;101123.75;5069968;28;20036;-57
2022/05/10 09:08:03;;;;;;;3.67;2.50;;;;;;;21.45;51.77;101131.72;5070283;28;20031;-58
2022/05/10 09:10:46;;;;;;;4.07;2.95;;;;;;;21.44;51.97;101116.81;5069665;28;20029;-59
2022/05/10 09:13:17;;;;;;;3.78;2.47;;;;;;;21.44;51.81;101116.81;5069521;28;20281;-59
2022/05/10 09:15:51;;;;;;;4.78;3.15;;;;;;;21.44;51.74;101119.47;5069964;28;20029;-60
2022/05/10 09:18:23;;;;;;;3.83;2.85;;;;;;;21.45;51.90;101120.28;5069617;28;20487;-59
2022/05/10 09:21:27;;;;;;;3.88;3.08;;;;;;;21.42;51.40;101116.22;5069639;28;20033;-58
2022/05/10 09:24:21;;;;;;;4.25;2.90;;;;;;;21.42;51.57;101115.38;5069564;28;20036;-59
2022/05/10 09:26:50;;;;;;;4.72;2.97;;;;;;;21.43;51.46;101109.88;5069466;28;20040;-59
2022/05/10 09:29:44;;;;;;;4.38;2.60;;;;;;;21.42;51.39;101118.84;5069085;28;20029;-59
2022/05/10 09:35:10;;;;;;;4.65;3.03;;;;;;;21.42;51.38;101110.09;5069650;28;20047;-59
2022/05/10 09:37:50;;;;;;;3.00;2.70;;;;;;;21.40;51.32;101107.63;5069543;28;20115;-59
2022/05/10 09:40:32;;;;;;;3.65;3.17;;;;;;;21.41;51.04;101111.91;5069422;28;20035;-59
2022/05/10 09:43:26;;;;;;;4.65;3.42;;;;;;;21.39;50.80;101107.84;5067951;28;20094;-59
2022/05/10 09:46:04;;;;;;;5.05;2.83;;;;;;;21.39;50.20;101100.69;5065682;28;20315;-59
2022/05/10 09:48:30;;;;;;;3.83;3.10;;;;;;;21.41;50.69;101101.31;5069049;28;20067;-58
2022/05/10 09:50:55;;;;;;;5.05;2.90;;;;;;;21.42;50.62;101105.59;5069071;28;20487;-58
2022/05/10 09:53:29;;;;;;;4.63;3.25;;;;;;;21.42;50.63;101092.34;5069107;28;20468;-59
2022/05/10 09:56:11;;;;;;;7.43;2.70;;;;;;;21.41;50.70;101092.56;5069291;28;20062;-59
2022/05/10 09:58:41;;;;;;;4.40;2.97;;;;;;;21.44;50.67;101090.31;5068907;28;20581;-58
2022/05/10 10:01:11;;;;;;;3.78;2.60;;;;;;;21.43;50.48;101088.69;5069255;28;20032;-60
2022/05/10 10:03:44;;;;;;;6.15;2.95;;;;;;;21.44;50.83;101092.97;5068889;28;20077;-60
2022/05/10 10:06:17;;;;;;;6.05;2.67;;;;;;;21.44;50.33;101092.97;5068370;28;20033;-58
2022/05/10 10:08:49;;;;;;;4.72;3.15;;;;;;;21.47;50.43;101079.31;5068693;28;20037;-59
2022/05/10 10:11:26;;;;;;;4.63;2.83;;;;;;;21.47;50.29;101078.50;5068938;28;20186;-58
2022/05/10 10:13:57;;;;;;;5.15;2.45;;;;;;;21.49;50.32;101068.50;5068147;28;20528;-58
2022/05/10 10:16:32;;;;;;;3.83;2.60;;;;;;;21.49;50.70;101066.69;5068331;28;20036;-59
2022/05/10 10:19:20;;;;;;;4.80;2.53;;;;;;;21.50;50.32;101075.44;5068876;28;20468;-57
2022/05/10 10:21:52;;;;;;;6.38;3.67;;;;;;;21.49;50.47;101058.72;5063782;28;20773;-57
2022/05/10 10:24:24;;;;;;;4.68;2.95;;;;;;;21.50;50.11;101055.06;5060510;28;20291;-62
2022/05/10 10:26:53;;;;;;;4.70;2.40;;;;;;;21.53;50.43;101054.66;5067711;28;20075;-64
2022/05/10 10:29:29;;;;;;;6.20;3.20;;;;;;;21.55;50.49;101043.84;5067940;28;20312;-61
2022/05/10 10:32:00;;;;;;;4.60;3.05;;;;;;;21.56;50.65;101042.00;5067327;28;20028;-63
2022/05/10 10:34:35;;;;;;;4.88;3.72;;;;;;;21.58;49.80;101039.97;5065856;28;20032;-62
2022/05/10 10:37:09;;;;;;;5.82;3.05;;;;;;;21.55;49.71;101040.38;5068424;28;20158;-61
2022/05/10 10:39:52;;;;;;;6.13;3.10;;;;;;;21.58;49.42;101040.78;5068069;28;20039;-60
2022/05/10 10:42:28;;;;;;;6.32;3.13;;;;;;;21.61;48.86;101031.63;5067831;28;20451;-61
2022/05/10 10:44:58;;;;;;;5.70;2.83;;;;;;;21.61;48.50;101026.31;5068107;28;20287;-63
2022/05/10 10:47:42;;;;;;;4.13;3.00;;;;;;;21.58;48.28;101024.88;5067737;28;20068;-61
2022/05/10 10:50:30;;;;;;;4.25;2.60;;;;;;;21.59;48.22;101026.50;5068347;28;20028;-61
2022/05/10 10:52:58;;;;;;;4.03;2.78;;;;;;;21.61;48.27;101023.66;5067483;28;20024;-61
2022/05/10 10:55:49;;;;;;;6.60;2.80;;;;;;;21.59;47.98;101021.22;5066677;28;20039;-60
2022/05/10 10:58:30;;;;;;;5.43;2.65;;;;;;;21.59;48.29;101023.03;5067578;28;20035;-63
2022/05/10 11:01:29;;;;;;;4.28;2.92;;;;;;;21.59;48.14;101018.56;5067535;28;20040;-63
2022/05/10 11:04:07;;;;;;;5.25;2.75;;;;;;;21.62;47.86;101009.38;5067588;28;20465;-62
2022/05/10 11:06:53;;;;;;;3.25;2.72;;;;;;;21.64;47.95;101012.66;5067506;28;20412;-61
2022/05/10 11:09:42;;;;;;;;;;;;;;;21.57;48.14;101009.19;5067850;28;20032;-61
2022/05/10 11:12:26;;;;;;;3.83;2.55;;;;;;;21.57;48.35;101007.34;5067115;28;19959;-62
2022/05/10 11:15:28;;;;;;;3.30;2.13;;;;;;;21.60;48.11;101009.59;5064262;28;20454;-61
2022/05/10 11:18:19;;;;;;;8.35;3.17;;;;;;;21.62;48.52;101001.44;5058031;28;20036;-62
2022/05/10 11:20:44;;;;;;;4.38;3.58;;;;;;;21.66;48.78;100994.69;5062608;28;20044;-60
2022/05/10 11:23:23;;;;;;;3.40;3.10;;;;;;;21.73;49.54;100990.22;5066395;28;20448;-61
2022/05/10 11:26:40;;;;;;;6.93;4.43;;;;;;;21.81;51.99;100987.34;5063432;28;20035;-58
2022/05/10 11:29:11;;;;;;;7.65;3.20;;;;;;;21.91;53.54;100993.03;5002904;28;20041;-55
2022/05/10 11:31:59;;;;;;;8.45;4.00;;;;;;;21.98;54.60;100988.53;5003971;28;20046;-61
2022/05/10 11:35:12;;;;;;;7.05;4.50;;;;;;;22.04;56.33;100985.09;5004177;28;20070;-53
2022/05/10 11:37:52;;;;;;;4.90;3.45;;;;;;;22.01;55.40;100980.19;5006815;28;20036;-55
2022/05/10 11:40:48;;;;;;;7.35;3.05;;;;;;;21.97;54.08;100978.13;5024049;28;20105;-57
2022/05/10 11:44:08;;;;;;;5.68;2.92;;;;;;;21.91;53.97;100971.81;4984306;28;20072;-57
2022/05/10 11:47:05;;;;;;;5.25;2.47;;;;;;;21.88;53.45;100966.91;4945415;29;20065;-59
2022/05/10 11:49:40;;;;;;;7.05;2.55;;;;;;;21.88;53.15;100968.75;4945726;29;20039;-56
2022/05/10 11:52:14;;;;;;;5.05;2.38;;;;;;;21.87;52.50;100965.28;4945979;29;20046;-60
2022/05/10 11:54:46;;;;;;;3.58;2.50;;;;;;;21.85;51.90;100957.53;4951824;28;20050;-57